Lacelle, Iowa
Current Conditions -  °F | °C
As of 7:55 PM on Sunday 21 Dec 2014 (Local Time) from KI75 Reporting Station
Overcast Overcast  
Wind Chill: 36°   Ceiling: 1000
Heat Index: 42°   Visibility: 10mi
Dew Point: 40°   Wind: 13mph
Humidity: 90%   Direction: 160°SSE
Pressure: 29.79"   Gusts: 17mph
Location:  41.0111°N, 93.7971°W
Report Text: KI75 220155Z AUTO 16011G15KT 10SM OVC010 06/04 A2979 RMK AO2 T00580043
Loading
Personal Weather Stations






























Interactive Weather Map New forecast layout! Learn more

10-Day Weather Forecast

Advertisements
Track Severe Weather on mobile